sensor_id;sensor_type;location;lat;lon;timestamp;P1;durP1;ratioP1;P2;durP2;ratioP2
27025;SDS011;14565;48.626;8.978;2022-09-12T00:00:42;11.98;;;8.80;;
27025;SDS011;14565;48.626;8.978;2022-09-12T00:03:08;11.00;;;9.32;;
27025;SDS011;14565;48.626;8.978;2022-09-12T00:05:39;11.30;;;9.15;;
27025;SDS011;14565;48.626;8.978;2022-09-12T00:08:08;11.95;;;8.75;;
27025;SDS011;14565;48.626;8.978;2022-09-12T00:10:39;12.57;;;8.90;;
27025;SDS011;14565;48.626;8.978;2022-09-12T00:13:07;10.77;;;8.70;;
27025;SDS011;14565;48.626;8.978;2022-09-12T00:15:37;11.60;;;8.30;;
27025;SDS011;14565;48.626;8.978;2022-09-12T00:18:05;12.02;;;7.53;;
27025;SDS011;14565;48.626;8.978;2022-09-12T00:20:31;9.20;;;7.70;;
27025;SDS011;14565;48.626;8.978;2022-09-12T00:22:56;9.15;;;7.53;;
27025;SDS011;14565;48.626;8.978;2022-09-12T00:25:22;8.75;;;7.80;;
27025;SDS011;14565;48.626;8.978;2022-09-12T00:27:47;10.35;;;7.88;;
27025;SDS011;14565;48.626;8.978;2022-09-12T00:30:13;10.13;;;7.65;;
27025;SDS011;14565;48.626;8.978;2022-09-12T00:32:39;10.65;;;8.38;;
27025;SDS011;14565;48.626;8.978;2022-09-12T00:35:05;10.73;;;8.30;;
27025;SDS011;14565;48.626;8.978;2022-09-12T00:37:31;12.45;;;8.70;;
27025;SDS011;14565;48.626;8.978;2022-09-12T00:39:58;16.23;;;9.60;;
27025;SDS011;14565;48.626;8.978;2022-09-12T00:42:23;12.38;;;9.70;;
27025;SDS011;14565;48.626;8.978;2022-09-12T00:44:50;11.38;;;9.98;;
27025;SDS011;14565;48.626;8.978;2022-09-12T00:47:18;13.80;;;9.73;;
27025;SDS011;14565;48.626;8.978;2022-09-12T00:52:25;13.43;;;9.60;;
27025;SDS011;14565;48.626;8.978;2022-09-12T00:57:42;10.15;;;8.15;;
27025;SDS011;14565;48.626;8.978;2022-09-12T01:00:14;11.80;;;8.18;;
27025;SDS011;14565;48.626;8.978;2022-09-12T01:02:42;13.40;;;8.60;;
27025;SDS011;14565;48.626;8.978;2022-09-12T01:05:10;9.35;;;8.00;;
27025;SDS011;14565;48.626;8.978;2022-09-12T01:07:37;12.43;;;8.82;;
27025;SDS011;14565;48.626;8.978;2022-09-12T01:10:05;12.43;;;8.27;;
27025;SDS011;14565;48.626;8.978;2022-09-12T01:12:32;11.68;;;8.13;;
27025;SDS011;14565;48.626;8.978;2022-09-12T01:14:58;10.70;;;8.68;;
27025;SDS011;14565;48.626;8.978;2022-09-12T01:17:33;11.45;;;8.95;;
27025;SDS011;14565;48.626;8.978;2022-09-12T01:26:15;13.77;;;9.77;;
27025;SDS011;14565;48.626;8.978;2022-09-12T01:37:21;13.20;;;9.45;;
27025;SDS011;14565;48.626;8.978;2022-09-12T01:39:58;13.60;;;9.93;;
27025;SDS011;14565;48.626;8.978;2022-09-12T01:45:29;15.30;;;10.68;;
27025;SDS011;14565;48.626;8.978;2022-09-12T01:48:01;21.75;;;11.05;;
27025;SDS011;14565;48.626;8.978;2022-09-12T01:50:36;14.32;;;10.75;;
27025;SDS011;14565;48.626;8.978;2022-09-12T01:53:19;15.48;;;10.98;;
27025;SDS011;14565;48.626;8.978;2022-09-12T01:55:55;14.50;;;10.30;;
27025;SDS011;14565;48.626;8.978;2022-09-12T01:58:28;15.65;;;11.07;;
27025;SDS011;14565;48.626;8.978;2022-09-12T02:01:07;15.10;;;10.98;;
27025;SDS011;14565;48.626;8.978;2022-09-12T02:03:40;16.83;;;11.25;;
27025;SDS011;14565;48.626;8.978;2022-09-12T02:06:19;16.27;;;11.95;;
27025;SDS011;14565;48.626;8.978;2022-09-12T02:09:00;14.43;;;10.40;;
27025;SDS011;14565;48.626;8.978;2022-09-12T02:11:30;14.52;;;11.35;;
27025;SDS011;14565;48.626;8.978;2022-09-12T02:14:03;14.20;;;10.68;;
27025;SDS011;14565;48.626;8.978;2022-09-12T02:16:34;19.77;;;10.75;;
27025;SDS011;14565;48.626;8.978;2022-09-12T02:19:02;16.15;;;11.50;;
27025;SDS011;14565;48.626;8.978;2022-09-12T02:21:36;15.40;;;10.57;;
27025;SDS011;14565;48.626;8.978;2022-09-12T02:24:07;17.05;;;10.40;;
27025;SDS011;14565;48.626;8.978;2022-09-12T02:26:40;16.08;;;10.60;;
27025;SDS011;14565;48.626;8.978;2022-09-12T02:29:10;15.13;;;10.90;;
27025;SDS011;14565;48.626;8.978;2022-09-12T02:31:40;15.98;;;10.85;;
27025;SDS011;14565;48.626;8.978;2022-09-12T02:36:54;16.85;;;10.73;;
27025;SDS011;14565;48.626;8.978;2022-09-12T02:39:33;14.63;;;10.02;;
27025;SDS011;14565;48.626;8.978;2022-09-12T02:41:59;14.88;;;10.70;;
27025;SDS011;14565;48.626;8.978;2022-09-12T02:44:27;19.13;;;10.43;;
27025;SDS011;14565;48.626;8.978;2022-09-12T02:46:59;16.85;;;11.07;;
27025;SDS011;14565;48.626;8.978;2022-09-12T02:49:34;19.48;;;10.73;;
27025;SDS011;14565;48.626;8.978;2022-09-12T02:51:59;18.25;;;11.02;;
27025;SDS011;14565;48.626;8.978;2022-09-12T02:54:26;17.83;;;11.30;;
27025;SDS011;14565;48.626;8.978;2022-09-12T02:56:52;13.50;;;10.75;;
27025;SDS011;14565;48.626;8.978;2022-09-12T02:59:18;14.93;;;10.40;;
27025;SDS011;14565;48.626;8.978;2022-09-12T03:04:35;13.60;;;9.13;;
27025;SDS011;14565;48.626;8.978;2022-09-12T03:07:21;16.30;;;9.90;;
27025;SDS011;14565;48.626;8.978;2022-09-12T03:10:02;19.13;;;10.07;;
27025;SDS011;14565;48.626;8.978;2022-09-12T03:18:34;14.90;;;10.93;;
27025;SDS011;14565;48.626;8.978;2022-09-12T03:21:13;18.25;;;10.40;;
27025;SDS011;14565;48.626;8.978;2022-09-12T03:26:48;17.85;;;10.98;;
27025;SDS011;14565;48.626;8.978;2022-09-12T03:29:19;15.15;;;10.70;;
27025;SDS011;14565;48.626;8.978;2022-09-12T03:31:54;15.85;;;10.77;;
27025;SDS011;14565;48.626;8.978;2022-09-12T03:34:21;15.50;;;10.80;;
27025;SDS011;14565;48.626;8.978;2022-09-12T03:36:49;16.50;;;11.30;;
27025;SDS011;14565;48.626;8.978;2022-09-12T03:39:15;18.73;;;11.15;;
27025;SDS011;14565;48.626;8.978;2022-09-12T03:41:41;17.05;;;11.43;;
27025;SDS011;14565;48.626;8.978;2022-09-12T03:44:06;13.73;;;11.32;;
27025;SDS011;14565;48.626;8.978;2022-09-12T03:46:32;15.07;;;10.93;;
27025;SDS011;14565;48.626;8.978;2022-09-12T03:48:58;16.42;;;11.27;;
27025;SDS011;14565;48.626;8.978;2022-09-12T03:51:24;24.75;;;12.65;;
27025;SDS011;14565;48.626;8.978;2022-09-12T03:53:50;20.92;;;11.35;;
27025;SDS011;14565;48.626;8.978;2022-09-12T03:56:15;19.58;;;10.98;;
27025;SDS011;14565;48.626;8.978;2022-09-12T03:58:42;16.08;;;12.07;;
27025;SDS011;14565;48.626;8.978;2022-09-12T04:01:08;18.95;;;11.40;;
27025;SDS011;14565;48.626;8.978;2022-09-12T04:03:40;15.43;;;10.27;;
27025;SDS011;14565;48.626;8.978;2022-09-12T04:06:07;16.80;;;10.70;;
27025;SDS011;14565;48.626;8.978;2022-09-12T04:08:34;15.48;;;10.95;;
27025;SDS011;14565;48.626;8.978;2022-09-12T04:11:01;14.13;;;10.20;;
27025;SDS011;14565;48.626;8.978;2022-09-12T04:13:31;19.58;;;9.95;;
27025;SDS011;14565;48.626;8.978;2022-09-12T04:15:57;12.73;;;9.10;;
27025;SDS011;14565;48.626;8.978;2022-09-12T04:18:24;14.13;;;8.60;;
27025;SDS011;14565;48.626;8.978;2022-09-12T04:20:50;13.65;;;8.43;;
27025;SDS011;14565;48.626;8.978;2022-09-12T04:23:16;11.70;;;8.95;;
27025;SDS011;14565;48.626;8.978;2022-09-12T04:25:41;15.35;;;9.25;;
27025;SDS011;14565;48.626;8.978;2022-09-12T04:28:07;11.38;;;8.73;;
27025;SDS011;14565;48.626;8.978;2022-09-12T04:30:42;13.82;;;9.40;;
27025;SDS011;14565;48.626;8.978;2022-09-12T04:33:08;13.70;;;9.88;;
27025;SDS011;14565;48.626;8.978;2022-09-12T04:35:34;13.35;;;8.63;;
27025;SDS011;14565;48.626;8.978;2022-09-12T04:38:00;13.13;;;9.45;;
27025;SDS011;14565;48.626;8.978;2022-09-12T04:40:28;15.25;;;8.88;;
27025;SDS011;14565;48.626;8.978;2022-09-12T04:42:54;13.85;;;9.45;;
27025;SDS011;14565;48.626;8.978;2022-09-12T04:45:20;17.20;;;9.50;;
27025;SDS011;14565;48.626;8.978;2022-09-12T04:47:46;12.95;;;9.38;;
27025;SDS011;14565;48.626;8.978;2022-09-12T04:50:16;15.07;;;9.32;;
27025;SDS011;14565;48.626;8.978;2022-09-12T04:52:45;10.95;;;8.57;;
27025;SDS011;14565;48.626;8.978;2022-09-12T04:55:18;13.88;;;8.95;;
27025;SDS011;14565;48.626;8.978;2022-09-12T04:57:44;12.18;;;8.60;;
27025;SDS011;14565;48.626;8.978;2022-09-12T05:00:10;13.10;;;7.75;;
27025;SDS011;14565;48.626;8.978;2022-09-12T05:02:42;10.25;;;7.65;;
27025;SDS011;14565;48.626;8.978;2022-09-12T05:05:08;12.25;;;8.02;;
27025;SDS011;14565;48.626;8.978;2022-09-12T05:07:34;13.45;;;7.70;;
27025;SDS011;14565;48.626;8.978;2022-09-12T05:10:00;9.80;;;7.78;;
27025;SDS011;14565;48.626;8.978;2022-09-12T05:12:28;13.02;;;7.13;;
27025;SDS011;14565;48.626;8.978;2022-09-12T05:14:54;15.77;;;9.30;;
27025;SDS011;14565;48.626;8.978;2022-09-12T05:17:20;12.82;;;8.98;;
27025;SDS011;14565;48.626;8.978;2022-09-12T05:19:46;12.73;;;9.30;;
27025;SDS011;14565;48.626;8.978;2022-09-12T05:22:12;15.32;;;7.13;;
27025;SDS011;14565;48.626;8.978;2022-09-12T05:24:38;10.07;;;7.70;;
27025;SDS011;14565;48.626;8.978;2022-09-12T05:27:07;15.32;;;7.72;;
27025;SDS011;14565;48.626;8.978;2022-09-12T05:29:33;11.15;;;7.97;;
27025;SDS011;14565;48.626;8.978;2022-09-12T05:32:00;11.15;;;8.43;;
27025;SDS011;14565;48.626;8.978;2022-09-12T05:34:26;12.18;;;8.52;;
27025;SDS011;14565;48.626;8.978;2022-09-12T05:36:51;13.55;;;8.60;;
27025;SDS011;14565;48.626;8.978;2022-09-12T05:39:17;12.38;;;8.90;;
27025;SDS011;14565;48.626;8.978;2022-09-12T05:41:43;14.77;;;9.40;;
27025;SDS011;14565;48.626;8.978;2022-09-12T05:44:12;11.57;;;8.40;;
27025;SDS011;14565;48.626;8.978;2022-09-12T05:46:42;13.75;;;8.48;;
27025;SDS011;14565;48.626;8.978;2022-09-12T05:49:15;12.98;;;8.57;;
27025;SDS011;14565;48.626;8.978;2022-09-12T05:51:41;13.07;;;8.90;;
27025;SDS011;14565;48.626;8.978;2022-09-12T05:54:10;12.05;;;8.45;;
27025;SDS011;14565;48.626;8.978;2022-09-12T05:56:38;13.80;;;8.55;;
27025;SDS011;14565;48.626;8.978;2022-09-12T05:59:06;13.52;;;8.43;;
27025;SDS011;14565;48.626;8.978;2022-09-12T06:01:36;11.88;;;8.38;;
27025;SDS011;14565;48.626;8.978;2022-09-12T06:04:02;12.43;;;7.82;;
27025;SDS011;14565;48.626;8.978;2022-09-12T06:08:57;13.13;;;8.27;;
27025;SDS011;14565;48.626;8.978;2022-09-12T06:11:25;12.20;;;9.25;;
27025;SDS011;14565;48.626;8.978;2022-09-12T06:13:52;12.43;;;9.38;;
27025;SDS011;14565;48.626;8.978;2022-09-12T06:16:22;11.57;;;8.82;;
27025;SDS011;14565;48.626;8.978;2022-09-12T06:19:00;12.38;;;9.10;;
27025;SDS011;14565;48.626;8.978;2022-09-12T06:21:27;10.68;;;9.07;;
27025;SDS011;14565;48.626;8.978;2022-09-12T06:23:58;12.43;;;8.48;;
27025;SDS011;14565;48.626;8.978;2022-09-12T06:26:24;12.73;;;9.20;;
27025;SDS011;14565;48.626;8.978;2022-09-12T06:28:50;10.48;;;8.85;;
27025;SDS011;14565;48.626;8.978;2022-09-12T06:31:21;11.77;;;8.98;;
27025;SDS011;14565;48.626;8.978;2022-09-12T06:33:51;12.40;;;10.13;;
27025;SDS011;14565;48.626;8.978;2022-09-12T06:36:19;9.77;;;7.67;;
27025;SDS011;14565;48.626;8.978;2022-09-12T06:38:53;12.60;;;7.63;;
27025;SDS011;14565;48.626;8.978;2022-09-12T06:41:21;8.77;;;7.20;;
27025;SDS011;14565;48.626;8.978;2022-09-12T06:43:48;10.15;;;7.25;;
27025;SDS011;14565;48.626;8.978;2022-09-12T06:46:14;10.93;;;7.30;;
27025;SDS011;14565;48.626;8.978;2022-09-12T06:48:39;10.85;;;7.93;;
27025;SDS011;14565;48.626;8.978;2022-09-12T06:51:08;9.57;;;7.45;;
27025;SDS011;14565;48.626;8.978;2022-09-12T06:53:35;10.20;;;7.03;;
27025;SDS011;14565;48.626;8.978;2022-09-12T06:58:29;9.02;;;6.57;;
27025;SDS011;14565;48.626;8.978;2022-09-12T07:03:32;6.63;;;6.03;;
27025;SDS011;14565;48.626;8.978;2022-09-12T07:06:03;9.55;;;6.60;;
27025;SDS011;14565;48.626;8.978;2022-09-12T07:08:29;10.45;;;7.22;;
27025;SDS011;14565;48.626;8.978;2022-09-12T07:10:55;8.77;;;6.93;;
27025;SDS011;14565;48.626;8.978;2022-09-12T07:13:23;12.90;;;8.15;;
27025;SDS011;14565;48.626;8.978;2022-09-12T07:15:49;7.63;;;6.85;;
27025;SDS011;14565;48.626;8.978;2022-09-12T07:18:15;7.03;;;5.47;;
27025;SDS011;14565;48.626;8.978;2022-09-12T07:20:41;6.63;;;5.93;;
27025;SDS011;14565;48.626;8.978;2022-09-12T07:23:07;6.95;;;5.63;;
27025;SDS011;14565;48.626;8.978;2022-09-12T07:25:33;7.00;;;6.18;;
27025;SDS011;14565;48.626;8.978;2022-09-12T07:27:59;5.43;;;4.93;;
27025;SDS011;14565;48.626;8.978;2022-09-12T07:30:25;11.32;;;5.43;;
27025;SDS011;14565;48.626;8.978;2022-09-12T07:32:51;5.30;;;4.30;;
27025;SDS011;14565;48.626;8.978;2022-09-12T07:35:18;7.53;;;4.50;;
27025;SDS011;14565;48.626;8.978;2022-09-12T07:37:44;5.03;;;4.43;;
27025;SDS011;14565;48.626;8.978;2022-09-12T07:40:10;5.22;;;4.40;;
27025;SDS011;14565;48.626;8.978;2022-09-12T07:42:36;5.38;;;4.30;;
27025;SDS011;14565;48.626;8.978;2022-09-12T07:45:01;5.95;;;4.40;;
27025;SDS011;14565;48.626;8.978;2022-09-12T07:47:27;5.55;;;4.35;;
27025;SDS011;14565;48.626;8.978;2022-09-12T07:49:53;6.45;;;5.80;;
27025;SDS011;14565;48.626;8.978;2022-09-12T07:52:18;5.32;;;4.82;;
27025;SDS011;14565;48.626;8.978;2022-09-12T07:54:44;6.05;;;5.45;;
27025;SDS011;14565;48.626;8.978;2022-09-12T07:57:10;7.57;;;5.05;;
27025;SDS011;14565;48.626;8.978;2022-09-12T07:59:36;9.00;;;5.53;;
27025;SDS011;14565;48.626;8.978;2022-09-12T08:02:09;6.43;;;4.93;;
27025;SDS011;14565;48.626;8.978;2022-09-12T08:04:37;7.20;;;5.00;;
27025;SDS011;14565;48.626;8.978;2022-09-12T08:07:03;5.05;;;4.55;;
27025;SDS011;14565;48.626;8.978;2022-09-12T08:09:30;5.30;;;4.80;;
27025;SDS011;14565;48.626;8.978;2022-09-12T08:11:56;7.90;;;4.47;;
27025;SDS011;14565;48.626;8.978;2022-09-12T08:14:21;5.72;;;4.22;;
27025;SDS011;14565;48.626;8.978;2022-09-12T08:16:47;4.72;;;3.72;;
27025;SDS011;14565;48.626;8.978;2022-09-12T08:19:13;4.25;;;3.10;;
27025;SDS011;14565;48.626;8.978;2022-09-12T08:21:38;4.57;;;3.85;;
27025;SDS011;14565;48.626;8.978;2022-09-12T08:24:05;2.25;;;2.05;;
27025;SDS011;14565;48.626;8.978;2022-09-12T08:26:31;1.77;;;1.67;;
27025;SDS011;14565;48.626;8.978;2022-09-12T08:28:57;2.08;;;1.88;;
27025;SDS011;14565;48.626;8.978;2022-09-12T08:31:24;2.03;;;1.48;;
27025;SDS011;14565;48.626;8.978;2022-09-12T08:33:50;2.65;;;2.20;;
27025;SDS011;14565;48.626;8.978;2022-09-12T08:36:20;2.97;;;1.88;;
27025;SDS011;14565;48.626;8.978;2022-09-12T08:38:48;4.78;;;1.55;;
27025;SDS011;14565;48.626;8.978;2022-09-12T08:50:09;2.08;;;1.48;;
27025;SDS011;14565;48.626;8.978;2022-09-12T08:55:23;2.45;;;1.60;;
27025;SDS011;14565;48.626;8.978;2022-09-12T08:57:55;1.60;;;1.50;;
27025;SDS011;14565;48.626;8.978;2022-09-12T09:00:21;2.10;;;1.58;;
27025;SDS011;14565;48.626;8.978;2022-09-12T09:03:08;1.63;;;1.50;;
27025;SDS011;14565;48.626;8.978;2022-09-12T09:06:02;2.63;;;1.70;;
27025;SDS011;14565;48.626;8.978;2022-09-12T09:08:44;1.83;;;1.50;;
27025;SDS011;14565;48.626;8.978;2022-09-12T09:11:44;1.80;;;1.50;;
27025;SDS011;14565;48.626;8.978;2022-09-12T09:15:02;1.70;;;1.60;;
27025;SDS011;14565;48.626;8.978;2022-09-12T09:22:48;2.10;;;1.58;;
27025;SDS011;14565;48.626;8.978;2022-09-12T09:25:20;2.88;;;1.65;;
27025;SDS011;14565;48.626;8.978;2022-09-12T09:28:01;1.90;;;1.30;;
27025;SDS011;14565;48.626;8.978;2022-09-12T09:30:32;1.55;;;1.45;;
27025;SDS011;14565;48.626;8.978;2022-09-12T09:33:00;1.67;;;1.40;;
27025;SDS011;14565;48.626;8.978;2022-09-12T09:35:44;1.58;;;1.45;;
27025;SDS011;14565;48.626;8.978;2022-09-12T09:43:51;1.63;;;1.40;;
27025;SDS011;14565;48.626;8.978;2022-09-12T09:46:17;3.08;;;1.40;;
27025;SDS011;14565;48.626;8.978;2022-09-12T09:48:47;2.60;;;1.48;;
27025;SDS011;14565;48.626;8.978;2022-09-12T09:51:15;2.35;;;1.40;;
27025;SDS011;14565;48.626;8.978;2022-09-12T09:53:57;2.20;;;1.40;;
27025;SDS011;14565;48.626;8.978;2022-09-12T09:56:29;2.45;;;1.42;;
27025;SDS011;14565;48.626;8.978;2022-09-12T09:59:07;1.48;;;1.20;;
27025;SDS011;14565;48.626;8.978;2022-09-12T10:02:01;1.40;;;1.30;;
27025;SDS011;14565;48.626;8.978;2022-09-12T10:04:40;1.50;;;1.38;;
27025;SDS011;14565;48.626;8.978;2022-09-12T10:07:19;1.98;;;1.50;;
27025;SDS011;14565;48.626;8.978;2022-09-12T10:12:39;2.13;;;1.30;;
27025;SDS011;14565;48.626;8.978;2022-09-12T10:15:18;1.77;;;1.23;;
27025;SDS011;14565;48.626;8.978;2022-09-12T10:17:46;1.30;;;1.17;;
27025;SDS011;14565;48.626;8.978;2022-09-12T10:25:54;1.42;;;1.30;;
27025;SDS011;14565;48.626;8.978;2022-09-12T10:28:24;1.60;;;1.30;;
27025;SDS011;14565;48.626;8.978;2022-09-12T10:31:03;2.35;;;1.20;;
27025;SDS011;14565;48.626;8.978;2022-09-12T10:33:31;1.45;;;1.30;;
27025;SDS011;14565;48.626;8.978;2022-09-12T10:38:34;1.40;;;1.30;;
27025;SDS011;14565;48.626;8.978;2022-09-12T10:41:04;2.47;;;1.20;;
27025;SDS011;14565;48.626;8.978;2022-09-12T10:48:42;1.13;;;1.00;;
27025;SDS011;14565;48.626;8.978;2022-09-12T10:53:50;2.15;;;1.45;;
27025;SDS011;14565;48.626;8.978;2022-09-12T10:56:21;3.78;;;1.45;;
27025;SDS011;14565;48.626;8.978;2022-09-12T11:01:38;3.17;;;1.33;;
27025;SDS011;14565;48.626;8.978;2022-09-12T11:06:36;1.27;;;1.10;;
27025;SDS011;14565;48.626;8.978;2022-09-12T11:12:00;2.45;;;1.10;;
27025;SDS011;14565;48.626;8.978;2022-09-12T11:19:37;5.00;;;1.08;;
27025;SDS011;14565;48.626;8.978;2022-09-12T11:30:26;1.17;;;0.90;;
27025;SDS011;14565;48.626;8.978;2022-09-12T11:36:12;1.52;;;1.10;;
27025;SDS011;14565;48.626;8.978;2022-09-12T11:41:53;1.00;;;0.90;;
27025;SDS011;14565;48.626;8.978;2022-09-12T11:44:23;2.65;;;1.10;;
27025;SDS011;14565;48.626;8.978;2022-09-12T11:46:53;1.98;;;0.90;;
27025;SDS011;14565;48.626;8.978;2022-09-12T11:59:50;1.10;;;1.00;;
27025;SDS011;14565;48.626;8.978;2022-09-12T12:02:27;0.98;;;0.82;;
27025;SDS011;14565;48.626;8.978;2022-09-12T12:04:58;1.15;;;0.93;;
27025;SDS011;14565;48.626;8.978;2022-09-12T12:07:51;0.80;;;0.80;;
27025;SDS011;14565;48.626;8.978;2022-09-12T12:10:21;2.15;;;1.00;;
27025;SDS011;14565;48.626;8.978;2022-09-12T12:12:51;1.13;;;1.00;;
27025;SDS011;14565;48.626;8.978;2022-09-12T12:17:44;1.33;;;1.00;;
27025;SDS011;14565;48.626;8.978;2022-09-12T12:20:29;1.13;;;1.00;;
27025;SDS011;14565;48.626;8.978;2022-09-12T12:22:54;0.93;;;0.88;;
27025;SDS011;14565;48.626;8.978;2022-09-12T12:25:21;1.15;;;1.05;;
27025;SDS011;14565;48.626;8.978;2022-09-12T12:27:53;2.00;;;1.40;;
27025;SDS011;14565;48.626;8.978;2022-09-12T12:38:02;0.82;;;0.80;;
27025;SDS011;14565;48.626;8.978;2022-09-12T12:40:29;1.25;;;0.90;;
27025;SDS011;14565;48.626;8.978;2022-09-12T12:42:59;1.77;;;1.00;;
27025;SDS011;14565;48.626;8.978;2022-09-12T12:48:10;1.20;;;0.90;;
27025;SDS011;14565;48.626;8.978;2022-09-12T12:50:40;1.30;;;1.20;;
27025;SDS011;14565;48.626;8.978;2022-09-12T12:53:14;2.38;;;0.98;;
27025;SDS011;14565;48.626;8.978;2022-09-12T12:55:50;1.67;;;1.13;;
27025;SDS011;14565;48.626;8.978;2022-09-12T13:03:42;0.95;;;0.93;;
27025;SDS011;14565;48.626;8.978;2022-09-12T13:09:02;1.55;;;0.60;;
27025;SDS011;14565;48.626;8.978;2022-09-12T13:11:39;1.55;;;0.80;;
27025;SDS011;14565;48.626;8.978;2022-09-12T13:14:06;0.80;;;0.80;;
27025;SDS011;14565;48.626;8.978;2022-09-12T13:16:53;2.70;;;0.75;;
27025;SDS011;14565;48.626;8.978;2022-09-12T13:19:28;1.13;;;0.80;;
27025;SDS011;14565;48.626;8.978;2022-09-12T13:21:59;1.17;;;0.73;;
27025;SDS011;14565;48.626;8.978;2022-09-12T13:24:25;0.50;;;0.50;;
27025;SDS011;14565;48.626;8.978;2022-09-12T13:26:51;1.00;;;0.80;;
27025;SDS011;14565;48.626;8.978;2022-09-12T13:29:21;0.85;;;0.80;;
27025;SDS011;14565;48.626;8.978;2022-09-12T13:31:50;1.25;;;0.80;;
27025;SDS011;14565;48.626;8.978;2022-09-12T13:45:39;0.80;;;0.80;;
27025;SDS011;14565;48.626;8.978;2022-09-12T13:48:06;3.38;;;0.80;;
27025;SDS011;14565;48.626;8.978;2022-09-12T13:50:39;1.10;;;0.80;;
27025;SDS011;14565;48.626;8.978;2022-09-12T13:53:17;8.60;;;7.75;;
27025;SDS011;14565;48.626;8.978;2022-09-12T13:55:47;3.80;;;3.50;;
27025;SDS011;14565;48.626;8.978;2022-09-12T13:58:37;2.50;;;2.30;;
27025;SDS011;14565;48.626;8.978;2022-09-12T14:03:37;2.78;;;2.22;;
27025;SDS011;14565;48.626;8.978;2022-09-12T14:09:15;2.75;;;1.70;;
27025;SDS011;14565;48.626;8.978;2022-09-12T14:11:53;1.70;;;1.20;;
27025;SDS011;14565;48.626;8.978;2022-09-12T14:14:33;3.22;;;1.25;;
27025;SDS011;14565;48.626;8.978;2022-09-12T14:17:00;2.72;;;1.17;;
27025;SDS011;14565;48.626;8.978;2022-09-12T14:19:44;1.33;;;1.20;;
27025;SDS011;14565;48.626;8.978;2022-09-12T14:22:11;1.48;;;0.80;;
27025;SDS011;14565;48.626;8.978;2022-09-12T14:24:43;1.85;;;1.27;;
27025;SDS011;14565;48.626;8.978;2022-09-12T14:30:20;10.07;;;5.65;;
27025;SDS011;14565;48.626;8.978;2022-09-12T14:35:27;13.07;;;9.43;;
27025;SDS011;14565;48.626;8.978;2022-09-12T14:37:53;5.30;;;4.60;;
27025;SDS011;14565;48.626;8.978;2022-09-12T14:40:20;4.38;;;3.38;;
27025;SDS011;14565;48.626;8.978;2022-09-12T14:45:22;1.50;;;1.38;;
27025;SDS011;14565;48.626;8.978;2022-09-12T14:47:49;3.78;;;2.05;;
27025;SDS011;14565;48.626;8.978;2022-09-12T14:50:18;1.77;;;1.60;;
27025;SDS011;14565;48.626;8.978;2022-09-12T14:53:20;2.10;;;1.10;;
27025;SDS011;14565;48.626;8.978;2022-09-12T14:58:32;3.25;;;1.10;;
27025;SDS011;14565;48.626;8.978;2022-09-12T15:05:57;1.60;;;1.13;;
27025;SDS011;14565;48.626;8.978;2022-09-12T15:08:24;6.72;;;4.50;;
27025;SDS011;14565;48.626;8.978;2022-09-12T15:10:53;7.53;;;4.53;;
27025;SDS011;14565;48.626;8.978;2022-09-12T15:13:20;3.80;;;1.25;;
27025;SDS011;14565;48.626;8.978;2022-09-12T15:15:54;1.38;;;1.17;;
27025;SDS011;14565;48.626;8.978;2022-09-12T15:18:23;2.28;;;1.20;;
27025;SDS011;14565;48.626;8.978;2022-09-12T15:21:06;1.25;;;1.15;;
27025;SDS011;14565;48.626;8.978;2022-09-12T15:26:04;1.95;;;1.10;;
27025;SDS011;14565;48.626;8.978;2022-09-12T15:28:31;1.63;;;1.10;;
27025;SDS011;14565;48.626;8.978;2022-09-12T15:30:59;4.88;;;1.00;;
27025;SDS011;14565;48.626;8.978;2022-09-12T15:33:31;1.00;;;0.90;;
27025;SDS011;14565;48.626;8.978;2022-09-12T15:35:56;1.30;;;1.20;;
27025;SDS011;14565;48.626;8.978;2022-09-12T15:38:22;0.80;;;0.70;;
27025;SDS011;14565;48.626;8.978;2022-09-12T15:40:48;1.00;;;0.90;;
27025;SDS011;14565;48.626;8.978;2022-09-12T15:43:17;1.33;;;0.80;;
27025;SDS011;14565;48.626;8.978;2022-09-12T15:45:43;2.63;;;2.42;;
27025;SDS011;14565;48.626;8.978;2022-09-12T15:48:11;2.20;;;2.00;;
27025;SDS011;14565;48.626;8.978;2022-09-12T15:50:37;1.65;;;0.90;;
27025;SDS011;14565;48.626;8.978;2022-09-12T15:53:04;1.77;;;1.10;;
27025;SDS011;14565;48.626;8.978;2022-09-12T15:55:30;2.03;;;1.00;;
27025;SDS011;14565;48.626;8.978;2022-09-12T15:57:57;2.15;;;1.00;;
27025;SDS011;14565;48.626;8.978;2022-09-12T16:00:23;1.75;;;0.95;;
27025;SDS011;14565;48.626;8.978;2022-09-12T16:02:50;1.42;;;0.93;;
27025;SDS011;14565;48.626;8.978;2022-09-12T16:05:17;1.38;;;0.80;;
27025;SDS011;14565;48.626;8.978;2022-09-12T16:07:49;2.20;;;0.93;;
27025;SDS011;14565;48.626;8.978;2022-09-12T16:10:18;1.00;;;0.90;;
27025;SDS011;14565;48.626;8.978;2022-09-12T16:12:46;1.65;;;1.10;;
27025;SDS011;14565;48.626;8.978;2022-09-12T16:15:14;2.28;;;1.20;;
27025;SDS011;14565;48.626;8.978;2022-09-12T16:17:43;1.67;;;0.90;;
27025;SDS011;14565;48.626;8.978;2022-09-12T16:20:09;1.40;;;1.00;;
27025;SDS011;14565;48.626;8.978;2022-09-12T16:22:35;1.35;;;1.00;;
27025;SDS011;14565;48.626;8.978;2022-09-12T16:25:01;1.00;;;0.90;;
27025;SDS011;14565;48.626;8.978;2022-09-12T16:27:27;3.38;;;1.10;;
27025;SDS011;14565;48.626;8.978;2022-09-12T16:29:53;1.80;;;0.90;;
27025;SDS011;14565;48.626;8.978;2022-09-12T16:32:19;3.17;;;0.98;;
27025;SDS011;14565;48.626;8.978;2022-09-12T16:34:44;1.15;;;1.05;;
27025;SDS011;14565;48.626;8.978;2022-09-12T16:37:10;2.25;;;1.00;;
27025;SDS011;14565;48.626;8.978;2022-09-12T16:39:35;2.35;;;1.00;;
27025;SDS011;14565;48.626;8.978;2022-09-12T16:42:01;2.15;;;0.95;;
27025;SDS011;14565;48.626;8.978;2022-09-12T16:44:27;1.65;;;1.00;;
27025;SDS011;14565;48.626;8.978;2022-09-12T16:46:53;2.60;;;1.10;;
27025;SDS011;14565;48.626;8.978;2022-09-12T16:49:19;2.20;;;1.13;;
27025;SDS011;14565;48.626;8.978;2022-09-12T16:51:45;1.42;;;1.10;;
27025;SDS011;14565;48.626;8.978;2022-09-12T16:54:14;1.20;;;1.10;;
27025;SDS011;14565;48.626;8.978;2022-09-12T16:56:40;1.70;;;1.00;;
27025;SDS011;14565;48.626;8.978;2022-09-12T16:59:06;1.60;;;0.90;;
27025;SDS011;14565;48.626;8.978;2022-09-12T17:01:33;1.27;;;1.08;;
27025;SDS011;14565;48.626;8.978;2022-09-12T17:03:59;3.33;;;1.30;;
27025;SDS011;14565;48.626;8.978;2022-09-12T17:06:26;2.65;;;1.20;;
27025;SDS011;14565;48.626;8.978;2022-09-12T17:08:54;2.03;;;1.08;;
27025;SDS011;14565;48.626;8.978;2022-09-12T17:11:25;2.45;;;1.00;;
27025;SDS011;14565;48.626;8.978;2022-09-12T17:13:55;1.63;;;1.20;;
27025;SDS011;14565;48.626;8.978;2022-09-12T17:16:21;1.20;;;1.10;;
27025;SDS011;14565;48.626;8.978;2022-09-12T17:18:47;1.77;;;1.05;;
27025;SDS011;14565;48.626;8.978;2022-09-12T17:21:13;1.25;;;1.00;;
27025;SDS011;14565;48.626;8.978;2022-09-12T17:23:39;3.55;;;1.95;;
27025;SDS011;14565;48.626;8.978;2022-09-12T17:26:05;3.53;;;2.50;;
27025;SDS011;14565;48.626;8.978;2022-09-12T17:28:32;1.70;;;1.42;;
27025;SDS011;14565;48.626;8.978;2022-09-12T17:31:01;1.73;;;1.10;;
27025;SDS011;14565;48.626;8.978;2022-09-12T17:33:29;1.42;;;1.00;;
27025;SDS011;14565;48.626;8.978;2022-09-12T17:35:59;1.13;;;0.80;;
27025;SDS011;14565;48.626;8.978;2022-09-12T17:38:33;1.67;;;1.00;;
27025;SDS011;14565;48.626;8.978;2022-09-12T17:41:03;1.10;;;1.00;;
27025;SDS011;14565;48.626;8.978;2022-09-12T17:43:34;1.20;;;1.00;;
27025;SDS011;14565;48.626;8.978;2022-09-12T17:46:02;3.08;;;1.13;;
27025;SDS011;14565;48.626;8.978;2022-09-12T17:48:28;2.88;;;1.27;;
27025;SDS011;14565;48.626;8.978;2022-09-12T17:50:54;5.40;;;1.35;;
27025;SDS011;14565;48.626;8.978;2022-09-12T17:53:20;5.70;;;1.50;;
27025;SDS011;14565;48.626;8.978;2022-09-12T17:55:45;3.88;;;1.05;;